Time,TemperatureF,DewpointF,PressureIn,WindDirection,WindDirectionDegrees,WindSpeedMPH,WindSpeedGustMPH,Humidity,HourlyPrecipIn,Conditions,Clouds,dailyrainin,SoftwareType,DateUTC
2013-03-19 00:08:00,67.6,67.0,29.96,SSE,152,2.0,-999.0,96,-99.99,,,0.00,weatherlink.com 1.10,2013-03-19 04:08:00,
2013-03-19 00:23:00,67.7,67.0,29.95,SE,141,1.0,-999.0,96,-99.99,,,0.00,weatherlink.com 1.10,2013-03-19 04:23:00,
2013-03-19 00:38:00,67.8,66.0,29.94,SSE,148,0.0,-999.0,95,-99.99,,,0.00,weatherlink.com 1.10,2013-03-19 04:38:00,
2013-03-19 00:53:00,68.0,67.0,29.93,SSE,157,0.0,-999.0,95,-99.99,,,0.00,weatherlink.com 1.10,2013-03-19 04:53:00,
2013-03-19 01:08:00,68.0,67.0,29.93,South,169,1.0,-999.0,95,-99.99,,,0.00,weatherlink.com 1.10,2013-03-19 05:08:00,
2013-03-19 01:23:00,68.2,67.0,29.93,SSW,202,0.0,-999.0,95,-99.99,,,0.00,weatherlink.com 1.10,2013-03-19 05:23:00,
2013-03-19 01:38:00,68.3,67.0,29.93,SSW,201,1.0,-999.0,95,-99.99,,,0.00,weatherlink.com 1.10,2013-03-19 05:38:00,
2013-03-19 01:53:00,68.4,67.0,29.92,SW,219,1.0,-999.0,95,-99.99,,,0.00,weatherlink.com 1.10,2013-03-19 05:53:00,
2013-03-19 02:08:00,68.7,67.0,29.91,South,176,5.0,-999.0,95,-99.99,,,0.00,weatherlink.com 1.10,2013-03-19 06:08:00,
2013-03-19 02:23:00,68.9,67.0,29.90,South,187,1.0,-999.0,94,-99.99,,,0.00,weatherlink.com 1.10,2013-03-19 06:23:00,
2013-03-19 02:38:00,69.1,67.0,29.91,SSW,210,0.0,-999.0,94,-99.99,,,0.00,weatherlink.com 1.10,2013-03-19 06:38:00,
2013-03-19 02:53:00,69.2,68.0,29.92,WSW,238,1.0,-999.0,94,-99.99,,,0.00,weatherlink.com 1.10,2013-03-19 06:53:00,
2013-03-19 03:08:00,69.5,68.0,29.91,SSW,198,1.0,-999.0,94,-99.99,,,0.00,weatherlink.com 1.10,2013-03-19 07:08:00,
2013-03-19 03:23:00,69.8,68.0,29.89,SW,221,5.0,-999.0,95,-99.99,,,0.00,weatherlink.com 1.10,2013-03-19 07:23:00,
2013-03-19 03:39:00,70.3,69.0,29.85,SSW,213,9.0,-999.0,95,-99.99,,,0.00,weatherlink.com 1.10,2013-03-19 07:39:00,
2013-03-19 03:54:00,70.7,69.0,29.85,SE,144,7.0,-999.0,95,-99.99,,,0.00,weatherlink.com 1.10,2013-03-19 07:54:00,
2013-03-19 04:09:00,71.1,70.0,29.83,SSE,167,1.0,-999.0,95,-99.99,,,0.00,weatherlink.com 1.10,2013-03-19 08:09:00,
2013-03-19 04:24:00,71.3,70.0,29.82,SSE,168,7.0,-999.0,94,-99.99,,,0.00,weatherlink.com 1.10,2013-03-19 08:24:00,
2013-03-19 04:39:00,71.7,70.0,29.80,South,184,5.0,-999.0,94,-99.99,,,0.00,weatherlink.com 1.10,2013-03-19 08:39:00,
2013-03-19 04:54:00,71.6,70.0,29.87,East,80,6.0,-999.0,93,-99.99,,,0.00,weatherlink.com 1.10,2013-03-19 08:54:00,
2013-03-19 05:09:00,71.9,70.0,29.91,WSW,252,1.0,-999.0,92,-99.99,,,0.00,weatherlink.com 1.10,2013-03-19 09:09:00,
2013-03-19 05:24:00,71.8,69.0,29.91,NW,323,0.0,-999.0,91,-99.99,,,0.00,weatherlink.com 1.10,2013-03-19 09:24:00,
2013-03-19 05:39:00,71.6,69.0,29.91,NW,317,0.0,-999.0,92,-99.99,,,0.00,weatherlink.com 1.10,2013-03-19 09:39:00,
2013-03-19 05:54:00,71.5,69.0,29.92,West,267,0.0,-999.0,91,-99.99,,,0.00,weatherlink.com 1.10,2013-03-19 09:54:00,
2013-03-19 06:09:00,71.4,69.0,29.93,WNW,291,1.0,-999.0,92,-99.99,,,0.00,weatherlink.com 1.10,2013-03-19 10:09:00,
2013-03-19 06:24:00,71.0,69.0,29.93,WNW,285,0.0,-999.0,92,-99.99,,,0.00,weatherlink.com 1.10,2013-03-19 10:24:00,
2013-03-19 06:39:00,70.7,68.0,29.93,West,267,0.0,-999.0,92,-99.99,,,0.00,weatherlink.com 1.10,2013-03-19 10:39:00,
2013-03-19 06:55:00,70.5,68.0,29.93,West,267,0.0,-999.0,93,-99.99,,,0.00,weatherlink.com 1.10,2013-03-19 10:55:00,
2013-03-19 07:09:00,70.2,68.0,29.94,WNW,292,0.0,-999.0,93,-99.99,,,0.00,weatherlink.com 1.10,2013-03-19 11:09:00,
2013-03-19 07:25:00,70.0,68.0,29.95,SW,226,0.0,-999.0,93,-99.99,,,0.00,weatherlink.com 1.10,2013-03-19 11:25:00,
2013-03-19 07:39:00,69.8,68.0,29.95,SW,217,0.0,-999.0,93,-99.99,,,0.00,weatherlink.com 1.10,2013-03-19 11:39:00,
2013-03-19 07:54:00,69.8,68.0,29.95,WSW,240,0.0,-999.0,93,-99.99,,,0.00,weatherlink.com 1.10,2013-03-19 11:54:00,
2013-03-19 08:10:00,70.1,68.0,29.96,WSW,250,0.0,-999.0,93,-99.99,,,0.00,weatherlink.com 1.10,2013-03-19 12:10:00,
2013-03-19 08:24:00,70.2,68.0,29.97,West,263,1.0,-999.0,92,-99.99,,,0.00,weatherlink.com 1.10,2013-03-19 12:24:00,
2013-03-19 08:40:00,70.2,68.0,29.96,SSW,203,0.0,-999.0,93,-99.99,,,0.00,weatherlink.com 1.10,2013-03-19 12:40:00,
2013-03-19 08:54:00,70.3,68.0,29.97,West,267,0.0,-999.0,93,-99.99,,,0.00,weatherlink.com 1.10,2013-03-19 12:54:00,
2013-03-19 09:09:00,70.5,68.0,29.96,WNW,296,2.0,-999.0,93,-99.99,,,0.00,weatherlink.com 1.10,2013-03-19 13:09:00,
2013-03-19 09:24:00,70.6,69.0,29.95,NW,311,1.0,-999.0,93,-99.99,,,0.00,weatherlink.com 1.10,2013-03-19 13:24:00,
2013-03-19 09:54:00,70.5,68.0,29.95,West,268,0.0,-999.0,93,-99.99,,,0.00,weatherlink.com 1.10,2013-03-19 13:54:00,
2013-03-19 10:09:00,70.5,68.0,29.96,NW,304,1.0,-999.0,93,-99.99,,,0.00,weatherlink.com 1.10,2013-03-19 14:09:00,
2013-03-19 10:24:00,70.6,68.0,29.97,NW,313,2.0,-999.0,92,-99.99,,,0.00,weatherlink.com 1.10,2013-03-19 14:24:00,
2013-03-19 10:39:00,70.7,68.0,29.97,NW,322,1.0,-999.0,91,-99.99,,,0.00,weatherlink.com 1.10,2013-03-19 14:39:00,
2013-03-19 10:54:00,71.0,68.0,29.98,NW,321,3.0,-999.0,89,-99.99,,,0.00,weatherlink.com 1.10,2013-03-19 14:54:00,
2013-03-19 11:09:00,71.7,68.0,29.98,West,281,1.0,-999.0,87,-99.99,,,0.00,weatherlink.com 1.10,2013-03-19 15:09:00,
2013-03-19 11:24:00,72.8,68.0,29.98,NNE,20,2.0,-999.0,86,-99.99,,,0.00,weatherlink.com 1.10,2013-03-19 15:24:00,
2013-03-19 11:39:00,73.3,69.0,29.99,NE,47,0.0,-999.0,85,-99.99,,,0.00,weatherlink.com 1.10,2013-03-19 15:39:00,
2013-03-19 11:54:00,74.0,68.0,29.99,NNW,329,4.0,-999.0,81,-99.99,,,0.00,weatherlink.com 1.10,2013-03-19 15:54:00,
2013-03-19 12:09:00,74.5,68.0,30.00,WSW,253,0.0,-999.0,81,-99.99,,,0.00,weatherlink.com 1.10,2013-03-19 16:09:00,
2013-03-19 12:24:00,75.0,68.0,30.00,NW,323,3.0,-999.0,80,-99.99,,,0.00,weatherlink.com 1.10,2013-03-19 16:24:00,
2013-03-19 12:39:00,75.8,69.0,29.99,WNW,293,3.0,-999.0,78,-99.99,,,0.00,weatherlink.com 1.10,2013-03-19 16:39:00,
2013-03-19 12:54:00,77.0,68.0,30.00,WNW,302,2.0,-999.0,74,-99.99,,,0.00,weatherlink.com 1.10,2013-03-19 16:54:00,
2013-03-19 13:09:00,77.0,68.0,29.99,West,271,1.0,-999.0,73,-99.99,,,0.00,weatherlink.com 1.10,2013-03-19 17:09:00,
2013-03-19 13:24:00,77.3,67.0,29.98,West,267,1.0,-999.0,70,-99.99,,,0.00,weatherlink.com 1.10,2013-03-19 17:24:00,
2013-03-19 13:39:00,77.7,67.0,29.97,NW,317,1.0,-999.0,69,-99.99,,,0.00,weatherlink.com 1.10,2013-03-19 17:39:00,
2013-03-19 13:54:00,77.9,67.0,29.96,WSW,241,0.0,-999.0,69,-99.99,,,0.00,weatherlink.com 1.10,2013-03-19 17:54:00,
2013-03-19 14:09:00,77.8,66.0,29.96,WNW,288,0.0,-999.0,68,-99.99,,,0.00,weatherlink.com 1.10,2013-03-19 18:09:00,
2013-03-19 14:24:00,77.9,67.0,29.96,WSW,246,1.0,-999.0,70,-99.99,,,0.00,weatherlink.com 1.10,2013-03-19 18:24:00,
2013-03-19 14:39:00,78.1,67.0,29.95,WNW,294,2.0,-999.0,68,-99.99,,,0.00,weatherlink.com 1.10,2013-03-19 18:39:00,
2013-03-19 14:55:00,77.9,67.0,29.95,West,277,1.0,-999.0,70,-99.99,,,0.00,weatherlink.com 1.10,2013-03-19 18:55:00,
2013-03-19 15:10:00,78.0,67.0,29.94,NNW,329,0.0,-999.0,68,-99.99,,,0.00,weatherlink.com 1.10,2013-03-19 19:10:00,
2013-03-19 15:25:00,77.9,67.0,29.95,NW,304,0.0,-999.0,70,-99.99,,,0.00,weatherlink.com 1.10,2013-03-19 19:25:00,
2013-03-19 15:40:00,77.7,67.0,29.93,West,277,1.0,-999.0,70,-99.99,,,0.00,weatherlink.com 1.10,2013-03-19 19:40:00,
2013-03-19 15:54:00,77.7,67.0,29.93,NNW,329,0.0,-999.0,70,-99.99,,,0.00,weatherlink.com 1.10,2013-03-19 19:54:00,
2013-03-19 16:09:00,78.3,66.0,29.93,West,263,1.0,-999.0,66,-99.99,,,0.00,weatherlink.com 1.10,2013-03-19 20:09:00,
2013-03-19 16:24:00,78.2,66.0,29.91,WNW,295,0.0,-999.0,67,-99.99,,,0.00,weatherlink.com 1.10,2013-03-19 20:24:00,
2013-03-19 16:40:00,79.4,67.0,29.91,SW,217,0.0,-999.0,67,-99.99,,,0.00,weatherlink.com 1.10,2013-03-19 20:40:00,
2013-03-19 16:55:00,79.0,67.0,29.90,SW,221,0.0,-999.0,67,-99.99,,,0.00,weatherlink.com 1.10,2013-03-19 20:55:00,
2013-03-19 17:10:00,78.9,67.0,29.89,South,182,0.0,-999.0,67,-99.99,,,0.00,weatherlink.com 1.10,2013-03-19 21:10:00,
2013-03-19 17:25:00,79.0,68.0,29.89,SW,223,0.0,-999.0,68,-99.99,,,0.00,weatherlink.com 1.10,2013-03-19 21:25:00,
2013-03-19 17:40:00,78.8,67.0,29.89,SSW,207,0.0,-999.0,68,-99.99,,,0.00,weatherlink.com 1.10,2013-03-19 21:40:00,
2013-03-19 17:55:00,79.7,67.0,29.89,SW,227,0.0,-999.0,66,-99.99,,,0.00,weatherlink.com 1.10,2013-03-19 21:55:00,
2013-03-19 18:10:00,78.7,67.0,29.89,WNW,285,0.0,-999.0,67,-99.99,,,0.00,weatherlink.com 1.10,2013-03-19 22:10:00,
2013-03-19 18:25:00,78.2,67.0,29.89,West,269,0.0,-999.0,69,-99.99,,,0.00,weatherlink.com 1.10,2013-03-19 22:25:00,
2013-03-19 18:40:00,77.8,69.0,29.90,SSE,161,2.0,-999.0,75,-99.99,,,0.00,weatherlink.com 1.10,2013-03-19 22:40:00,
2013-03-19 18:55:00,76.7,69.0,29.90,SSE,150,0.0,-999.0,77,-99.99,,,0.00,weatherlink.com 1.10,2013-03-19 22:55:00,
2013-03-19 19:10:00,75.8,69.0,29.91,SSE,160,0.0,-999.0,78,-99.99,,,0.00,weatherlink.com 1.10,2013-03-19 23:10:00,
2013-03-19 19:25:00,75.1,69.0,29.91,SE,140,0.0,-999.0,80,-99.99,,,0.00,weatherlink.com 1.10,2013-03-19 23:25:00,
2013-03-19 19:40:00,74.2,68.0,29.92,SE,135,0.0,-999.0,82,-99.99,,,0.00,weatherlink.com 1.10,2013-03-19 23:40:00,
2013-03-19 19:55:00,73.4,68.0,29.93,SE,135,0.0,-999.0,84,-99.99,,,0.00,weatherlink.com 1.10,2013-03-19 23:55:00,
2013-03-19 20:10:00,72.8,68.0,29.93,SE,134,0.0,-999.0,85,-99.99,,,0.00,weatherlink.com 1.10,2013-03-20 00:10:00,
2013-03-19 20:25:00,72.2,68.0,29.93,SE,142,0.0,-999.0,87,-99.99,,,0.00,weatherlink.com 1.10,2013-03-20 00:25:00,
2013-03-19 20:40:00,71.6,68.0,29.93,SE,141,0.0,-999.0,88,-99.99,,,0.00,weatherlink.com 1.10,2013-03-20 00:40:00,
2013-03-19 20:55:00,71.1,68.0,29.93,SE,141,0.0,-999.0,89,-99.99,,,0.00,weatherlink.com 1.10,2013-03-20 00:55:00,
2013-03-19 21:10:00,70.8,68.0,29.94,SE,140,0.0,-999.0,90,-99.99,,,0.00,weatherlink.com 1.10,2013-03-20 01:10:00,
2013-03-19 21:25:00,70.5,68.0,29.94,SE,142,0.0,-999.0,91,-99.99,,,0.00,weatherlink.com 1.10,2013-03-20 01:25:00,
2013-03-19 21:40:00,70.2,68.0,29.94,SE,142,0.0,-999.0,92,-99.99,,,0.00,weatherlink.com 1.10,2013-03-20 01:40:00,
2013-03-19 21:55:00,70.0,68.0,29.94,SE,141,0.0,-999.0,92,-99.99,,,0.00,weatherlink.com 1.10,2013-03-20 01:55:00,
2013-03-19 22:10:00,69.7,68.0,29.95,SSW,199,0.0,-999.0,93,-99.99,,,0.00,weatherlink.com 1.10,2013-03-20 02:10:00,
2013-03-19 22:25:00,69.3,67.0,29.95,SSW,199,0.0,-999.0,93,-99.99,,,0.00,weatherlink.com 1.10,2013-03-20 02:25:00,
2013-03-19 22:40:00,69.2,68.0,29.95,SSW,199,0.0,-999.0,94,-99.99,,,0.00,weatherlink.com 1.10,2013-03-20 02:40:00,
2013-03-19 22:55:00,68.9,67.0,29.95,SSW,199,0.0,-999.0,94,-99.99,,,0.00,weatherlink.com 1.10,2013-03-20 02:55:00,
2013-03-19 23:10:00,69.0,67.0,29.95,SSW,199,0.0,-999.0,94,-99.99,,,0.00,weatherlink.com 1.10,2013-03-20 03:10:00,
2013-03-19 23:25:00,68.8,67.0,29.95,SSW,199,0.0,-999.0,95,-99.99,,,0.00,weatherlink.com 1.10,2013-03-20 03:25:00,
2013-03-19 23:40:00,68.8,67.0,29.94,SSW,194,0.0,-999.0,95,-99.99,,,0.00,weatherlink.com 1.10,2013-03-20 03:40:00,
2013-03-19 23:56:00,68.5,67.0,29.94,SSW,194,0.0,-999.0,95,-99.99,,,0.00,weatherlink.com 1.10,2013-03-20 03:56:00,